createdAt,value
2018-08-22T00:00:42.352Z,16.36
2018-08-22T00:03:11.978Z,16.38
2018-08-22T00:05:41.877Z,16.38
2018-08-22T00:08:11.697Z,16.38
2018-08-22T00:10:41.186Z,16.36
2018-08-22T00:13:11.092Z,16.34
2018-08-22T00:15:40.907Z,16.19
2018-08-22T00:18:10.666Z,16.19
2018-08-22T00:20:40.396Z,16.14
2018-08-22T00:23:10.152Z,16.13
2018-08-22T00:25:39.802Z,16.10
2018-08-22T00:28:09.500Z,16.11
2018-08-22T00:30:39.158Z,16.10
2018-08-22T00:33:09.720Z,16.08
2018-08-22T00:35:39.460Z,16.06
2018-08-22T00:38:10.263Z,16.09
2018-08-22T00:40:40.596Z,16.14
2018-08-22T00:43:11.983Z,16.16
2018-08-22T00:45:41.863Z,16.01
2018-08-22T00:48:11.440Z,15.83
2018-08-22T00:50:41.307Z,15.79
2018-08-22T00:53:11.835Z,15.74
2018-08-22T00:55:41.788Z,15.77
2018-08-22T00:58:11.406Z,15.74
2018-08-22T01:00:41.202Z,15.68
2018-08-22T01:03:10.882Z,15.74
2018-08-22T01:05:40.546Z,15.95
2018-08-22T01:08:10.058Z,16.19
2018-08-22T01:10:39.879Z,16.24
2018-08-22T01:13:09.540Z,16.34
2018-08-22T01:15:39.161Z,16.21
2018-08-22T01:18:08.759Z,16.21
2018-08-22T01:20:38.572Z,16.12
2018-08-22T01:23:08.257Z,15.92
2018-08-22T01:25:38.025Z,15.85
2018-08-22T01:28:07.505Z,15.75
2018-08-22T01:30:37.235Z,15.77
2018-08-22T01:33:06.696Z,15.82
2018-08-22T01:35:36.594Z,15.90
2018-08-22T01:38:06.505Z,15.90
2018-08-22T01:40:36.277Z,15.86
2018-08-22T01:43:06.030Z,15.88
2018-08-22T01:45:35.800Z,16.01
2018-08-22T01:48:05.906Z,16.06
2018-08-22T01:50:35.643Z,16.06
2018-08-22T01:53:05.175Z,15.95
2018-08-22T01:55:34.961Z,15.82
2018-08-22T01:58:04.645Z,15.65
2018-08-22T02:00:34.424Z,15.56
2018-08-22T02:03:04.281Z,15.53
2018-08-22T02:05:34.054Z,15.55
2018-08-22T02:08:03.693Z,15.54
2018-08-22T02:10:33.800Z,15.56
2018-08-22T02:13:03.921Z,15.66
2018-08-22T02:15:34.112Z,15.60
2018-08-22T02:18:03.646Z,15.62
2018-08-22T02:20:34.104Z,15.59
2018-08-22T02:23:03.806Z,15.51
2018-08-22T02:25:33.387Z,15.45
2018-08-22T02:28:03.006Z,15.40
2018-08-22T02:30:32.612Z,15.41
2018-08-22T02:33:02.234Z,15.40
2018-08-22T02:35:32.292Z,15.42
2018-08-22T02:38:01.872Z,15.42
2018-08-22T02:40:31.504Z,15.40
2018-08-22T02:43:01.092Z,15.30
2018-08-22T02:45:30.812Z,15.25
2018-08-22T02:48:00.440Z,15.22
2018-08-22T02:50:30.223Z,15.23
2018-08-22T02:52:59.974Z,15.22
2018-08-22T02:55:29.699Z,15.25
2018-08-22T02:57:59.514Z,15.18
2018-08-22T03:00:29.247Z,14.96
2018-08-22T03:02:59.043Z,14.90
2018-08-22T03:05:29.060Z,14.90
2018-08-22T03:07:58.819Z,14.94
2018-08-22T03:10:28.598Z,15.06
2018-08-22T03:12:58.193Z,15.00
2018-08-22T03:15:27.888Z,14.88
2018-08-22T03:17:57.477Z,14.86
2018-08-22T03:20:27.147Z,14.92
2018-08-22T03:22:56.869Z,14.99
2018-08-22T03:25:26.538Z,15.01
2018-08-22T03:27:56.140Z,15.02
2018-08-22T03:30:26.049Z,14.91
2018-08-22T03:32:55.504Z,14.83
2018-08-22T03:35:25.097Z,14.76
2018-08-22T03:37:54.750Z,14.74
2018-08-22T03:40:24.460Z,14.84
2018-08-22T03:42:54.053Z,14.89
2018-08-22T03:45:23.949Z,14.84
2018-08-22T03:47:53.646Z,14.79
2018-08-22T03:50:23.432Z,14.70
2018-08-22T03:52:53.188Z,14.73
2018-08-22T03:55:23.005Z,14.78
2018-08-22T03:57:52.614Z,14.75
2018-08-22T04:00:22.527Z,14.75
2018-08-22T04:02:52.318Z,14.79
2018-08-22T04:05:22.049Z,14.79
2018-08-22T04:07:51.652Z,14.81
2018-08-22T04:10:21.569Z,14.82
2018-08-22T04:12:51.097Z,14.90
2018-08-22T04:15:20.869Z,14.70
2018-08-22T04:17:50.755Z,14.62
2018-08-22T04:20:20.546Z,14.59
2018-08-22T04:22:50.214Z,14.61
2018-08-22T04:25:20.125Z,14.70
2018-08-22T04:27:49.667Z,14.73
2018-08-22T04:30:19.330Z,14.74
2018-08-22T04:32:49.075Z,14.70
2018-08-22T04:35:18.835Z,14.77
2018-08-22T04:37:48.543Z,14.85
2018-08-22T04:40:18.373Z,14.92
2018-08-22T04:42:47.958Z,14.92
2018-08-22T04:45:20.766Z,14.92
2018-08-22T04:57:37.048Z,15.33
2018-08-22T05:00:12.106Z,15.41
2018-08-22T05:02:43.524Z,15.52
2018-08-22T05:05:19.730Z,15.59
2018-08-22T05:07:51.863Z,15.66
2018-08-22T05:10:30.658Z,15.75
2018-08-22T05:13:07.581Z,15.86
2018-08-22T05:15:43.401Z,16.02
2018-08-22T05:18:23.462Z,16.19
2018-08-22T05:23:34.141Z,16.49
2018-08-22T05:26:10.682Z,16.65
2018-08-22T05:28:40.679Z,16.76
2018-08-22T05:31:10.611Z,16.94
2018-08-22T05:33:40.689Z,17.02
2018-08-22T05:36:17.327Z,17.08
2018-08-22T05:38:48.248Z,17.20
2018-08-22T05:41:19.241Z,17.37
2018-08-22T05:44:02.028Z,17.56
2018-08-22T05:46:32.585Z,17.67
2018-08-22T05:49:02.579Z,17.86
2018-08-22T05:51:32.821Z,18.09
2018-08-22T05:54:03.328Z,18.28
2018-08-22T05:56:33.507Z,18.60
2018-08-22T05:59:03.520Z,19.03
2018-08-22T06:01:35.007Z,19.24
2018-08-22T06:04:05.467Z,19.52
2018-08-22T06:06:36.007Z,19.92
2018-08-22T06:09:10.585Z,20.34
2018-08-22T06:11:40.680Z,20.77
2018-08-22T06:14:10.679Z,20.89
2018-08-22T06:16:41.372Z,21.12
2018-08-22T06:19:11.708Z,21.41
2018-08-22T06:21:41.658Z,21.42
2018-08-22T06:24:11.479Z,21.38
2018-08-22T06:26:41.162Z,21.53
2018-08-22T06:29:10.743Z,21.67
2018-08-22T06:31:40.598Z,21.74
2018-08-22T06:34:10.143Z,22.01
2018-08-22T06:36:41.275Z,22.38
2018-08-22T06:39:12.659Z,23.02
2018-08-22T06:41:42.850Z,23.32
2018-08-22T06:44:12.691Z,23.22
2018-08-22T06:46:42.753Z,23.56
2018-08-22T06:49:12.418Z,23.66
2018-08-22T06:51:42.061Z,23.95
2018-08-22T06:54:11.797Z,24.20
2018-08-22T06:56:41.451Z,24.25
2018-08-22T06:59:12.411Z,24.59
2018-08-22T07:01:42.070Z,24.57
2018-08-22T07:04:11.515Z,24.47
2018-08-22T07:06:41.207Z,24.63
2018-08-22T07:09:12.718Z,25.04
2018-08-22T07:11:42.411Z,25.25
2018-08-22T07:14:12.142Z,25.01
2018-08-22T07:16:42.040Z,25.55
2018-08-22T07:19:11.793Z,25.35
2018-08-22T07:21:41.419Z,25.60
2018-08-22T07:24:11.074Z,26.15
2018-08-22T07:26:40.778Z,26.10
2018-08-22T07:29:10.497Z,26.18
2018-08-22T07:31:40.125Z,25.53
2018-08-22T07:34:09.675Z,25.45
2018-08-22T07:36:39.296Z,25.40
2018-08-22T07:39:12.643Z,25.90
2018-08-22T07:41:42.287Z,26.31
2018-08-22T07:44:13.689Z,26.33
2018-08-22T07:46:43.479Z,26.43
2018-08-22T07:49:13.070Z,26.63
2018-08-22T07:51:42.824Z,26.23
2018-08-22T07:54:12.444Z,26.07
2018-08-22T07:56:42.371Z,26.42
2018-08-22T07:59:16.368Z,26.84
2018-08-22T08:01:46.078Z,26.96
2018-08-22T08:04:15.533Z,27.74
2018-08-22T08:06:45.248Z,27.70
2018-08-22T08:09:16.211Z,27.93
2018-08-22T08:11:45.811Z,27.61
2018-08-22T08:14:15.457Z,27.75
2018-08-22T08:16:45.248Z,27.26
2018-08-22T08:19:14.772Z,27.19
2018-08-22T08:21:44.452Z,27.82
2018-08-22T08:24:14.192Z,28.09
2018-08-22T08:26:43.954Z,28.61
2018-08-22T08:29:13.458Z,28.66
2018-08-22T08:31:43.137Z,29.09
2018-08-22T08:34:12.752Z,28.70
2018-08-22T08:36:42.639Z,28.73
2018-08-22T08:39:13.027Z,28.98
2018-08-22T08:41:42.721Z,28.58
2018-08-22T08:44:12.177Z,28.74
2018-08-22T08:46:41.966Z,28.37
2018-08-22T08:49:11.653Z,28.05
2018-08-22T08:51:52.224Z,28.12
2018-08-22T08:54:22.655Z,27.98
2018-08-22T08:56:52.523Z,28.78
2018-08-22T08:59:22.063Z,28.71
2018-08-22T09:01:51.788Z,28.76
2018-08-22T09:04:21.406Z,29.21
2018-08-22T09:06:51.686Z,28.79
2018-08-22T09:09:21.178Z,28.77
2018-08-22T09:12:05.411Z,29.19
2018-08-22T09:14:35.317Z,29.44
2018-08-22T09:17:04.950Z,28.66
2018-08-22T09:19:34.597Z,28.70
2018-08-22T09:22:04.440Z,28.81
2018-08-22T09:24:34.264Z,28.83
2018-08-22T09:27:04.197Z,29.05
2018-08-22T09:29:33.651Z,29.33
2018-08-22T09:32:03.324Z,29.36
2018-08-22T09:34:32.949Z,29.34
2018-08-22T09:37:02.574Z,29.15
2018-08-22T09:39:32.377Z,29.44
2018-08-22T09:42:02.092Z,29.69
2018-08-22T09:44:31.635Z,29.27
2018-08-22T09:47:01.324Z,29.43
2018-08-22T09:49:31.036Z,29.63
2018-08-22T09:52:00.643Z,29.75
2018-08-22T09:54:30.221Z,29.90
2018-08-22T09:57:00.018Z,29.53
2018-08-22T09:59:30.040Z,29.53
2018-08-22T10:01:59.701Z,29.69
2018-08-22T10:04:29.598Z,29.71
2018-08-22T10:06:59.419Z,30.31
2018-08-22T10:09:29.008Z,30.19
2018-08-22T10:11:58.816Z,29.94
2018-08-22T10:14:28.590Z,30.01
2018-08-22T10:16:58.357Z,29.83
2018-08-22T10:19:27.857Z,30.27
2018-08-22T10:21:57.669Z,30.71
2018-08-22T10:24:27.320Z,29.98
2018-08-22T10:26:57.143Z,30.12
2018-08-22T10:29:26.860Z,31.04
2018-08-22T10:31:56.482Z,30.61
2018-08-22T10:34:26.078Z,30.36
2018-08-22T10:36:55.952Z,30.40
2018-08-22T10:39:25.562Z,30.30
2018-08-22T10:41:55.297Z,30.10
2018-08-22T10:44:25.071Z,30.35
2018-08-22T10:46:54.688Z,30.86
2018-08-22T10:49:24.356Z,30.71
2018-08-22T10:51:54.203Z,30.59
2018-08-22T10:54:23.823Z,30.80
2018-08-22T10:56:53.440Z,31.11
2018-08-22T10:59:22.959Z,31.18
2018-08-22T11:01:52.826Z,30.95
2018-08-22T11:04:22.566Z,31.68
2018-08-22T11:06:52.392Z,31.28
2018-08-22T11:09:21.943Z,31.34
2018-08-22T11:11:51.616Z,31.29
2018-08-22T11:14:21.459Z,30.82
2018-08-22T11:16:51.324Z,30.58
2018-08-22T11:19:20.765Z,29.97
2018-08-22T11:22:01.079Z,30.40
2018-08-22T11:24:41.114Z,30.57
2018-08-22T11:27:21.261Z,30.74
2018-08-22T11:30:01.401Z,30.90
2018-08-22T11:32:41.709Z,31.67
2018-08-22T11:35:09.567Z,31.07
2018-08-22T11:37:39.372Z,31.44
2018-08-22T11:40:09.073Z,31.09
2018-08-22T11:42:38.840Z,30.96
2018-08-22T11:45:08.628Z,30.94
2018-08-22T11:47:38.369Z,30.92
2018-08-22T11:50:07.973Z,30.83
2018-08-22T11:52:37.559Z,30.36
2018-08-22T11:55:07.334Z,30.04
2018-08-22T11:57:36.921Z,29.84
2018-08-22T12:00:08.127Z,29.52
2018-08-22T12:02:37.730Z,29.26
2018-08-22T12:05:07.404Z,29.33
2018-08-22T12:07:37.168Z,29.60
2018-08-22T12:10:06.915Z,30.35
2018-08-22T12:12:36.631Z,30.73
2018-08-22T12:15:06.105Z,31.26
2018-08-22T12:17:35.870Z,31.44
2018-08-22T12:20:05.557Z,31.43
2018-08-22T12:22:35.332Z,31.10
2018-08-22T12:25:05.089Z,30.93
2018-08-22T12:27:34.785Z,30.38
2018-08-22T12:30:05.221Z,30.18
2018-08-22T12:32:35.003Z,29.99
2018-08-22T12:35:04.557Z,30.20
2018-08-22T12:37:34.316Z,30.48
2018-08-22T12:40:04.070Z,30.92
2018-08-22T12:42:41.175Z,30.56
2018-08-22T12:45:10.830Z,30.57
2018-08-22T12:47:40.591Z,30.63
2018-08-22T12:50:10.227Z,30.84
2018-08-22T12:52:39.868Z,31.27
2018-08-22T12:55:09.544Z,31.27
2018-08-22T12:57:39.896Z,31.08
2018-08-22T13:00:09.468Z,31.26
2018-08-22T13:02:39.288Z,31.63
2018-08-22T13:05:08.866Z,31.80
2018-08-22T13:07:38.383Z,32.15
2018-08-22T13:10:08.105Z,31.95
2018-08-22T13:12:37.865Z,31.55
2018-08-22T13:15:10.066Z,31.56
2018-08-22T13:17:39.733Z,31.66
2018-08-22T13:20:09.306Z,31.48
2018-08-22T13:22:38.958Z,31.05
2018-08-22T13:25:12.012Z,31.69
2018-08-22T13:27:41.674Z,32.10
2018-08-22T13:30:11.364Z,31.87
2018-08-22T13:32:41.396Z,32.17
2018-08-22T13:35:11.380Z,31.82
2018-08-22T13:37:41.144Z,31.88
2018-08-22T13:40:10.713Z,31.55
2018-08-22T13:42:40.426Z,31.90
2018-08-22T13:45:10.482Z,31.88
2018-08-22T13:47:40.288Z,32.05
2018-08-22T13:50:09.944Z,31.79
2018-08-22T13:52:39.827Z,31.58
2018-08-22T13:55:10.042Z,31.48
2018-08-22T13:57:39.666Z,31.59
2018-08-22T14:00:09.889Z,32.29
2018-08-22T14:02:39.783Z,32.18
2018-08-22T14:05:09.413Z,31.99
2018-08-22T14:07:39.064Z,31.83
2018-08-22T14:10:08.615Z,31.79
2018-08-22T14:12:38.368Z,31.68
2018-08-22T14:15:08.343Z,32.09
2018-08-22T14:17:38.091Z,31.50
2018-08-22T14:20:07.805Z,31.58
2018-08-22T14:22:37.615Z,31.74
2018-08-22T14:25:07.282Z,31.81
2018-08-22T14:27:37.745Z,32.29
2018-08-22T14:30:08.522Z,31.92
2018-08-22T14:32:38.382Z,32.07
2018-08-22T14:35:08.130Z,31.92
2018-08-22T14:37:38.045Z,31.75
2018-08-22T14:40:07.713Z,31.81
2018-08-22T14:42:37.593Z,31.94
2018-08-22T14:45:08.172Z,31.67
2018-08-22T14:47:40.509Z,31.67
2018-08-22T14:50:11.719Z,31.61
2018-08-22T14:52:41.810Z,31.55
2018-08-22T14:55:11.385Z,31.25
2018-08-22T14:57:40.985Z,31.22
2018-08-22T15:00:11.968Z,31.50
2018-08-22T15:02:41.833Z,31.50
2018-08-22T15:05:11.623Z,31.61
2018-08-22T15:07:41.393Z,31.48
2018-08-22T15:10:15.267Z,31.51
2018-08-22T15:12:44.827Z,31.72
2018-08-22T15:15:14.278Z,32.01
2018-08-22T15:17:44.387Z,31.99
2018-08-22T15:20:13.971Z,32.03
2018-08-22T15:22:43.433Z,32.30
2018-08-22T15:25:13.003Z,32.17
2018-08-22T15:27:42.480Z,32.47
2018-08-22T15:30:11.953Z,32.51
2018-08-22T15:32:42.529Z,32.38
2018-08-22T15:35:11.939Z,31.98
2018-08-22T15:37:43.144Z,32.49
2018-08-22T15:40:12.629Z,32.16
2018-08-22T15:42:43.034Z,32.18
2018-08-22T15:45:12.490Z,32.43
2018-08-22T15:47:43.393Z,32.17
2018-08-22T15:50:13.075Z,31.75
2018-08-22T15:52:43.268Z,32.07
2018-08-22T15:55:16.849Z,31.91
2018-08-22T15:57:58.599Z,32.19
2018-08-22T16:00:34.446Z,32.25
2018-08-22T16:03:05.440Z,31.76
2018-08-22T16:05:36.233Z,31.69
2018-08-22T16:08:06.388Z,31.80
2018-08-22T16:10:35.892Z,32.31
2018-08-22T16:13:05.690Z,32.23
2018-08-22T16:15:37.091Z,32.08
2018-08-22T16:18:09.872Z,32.24
2018-08-22T16:20:47.723Z,31.97
2018-08-22T16:23:17.395Z,31.51
2018-08-22T16:25:49.291Z,31.47
2018-08-22T16:28:19.027Z,31.73
2018-08-22T16:30:56.951Z,31.56
2018-08-22T16:33:20.929Z,31.90
2018-08-22T16:35:50.517Z,31.95
2018-08-22T16:38:20.505Z,31.45
2018-08-22T16:40:52.756Z,31.82
2018-08-22T16:43:37.703Z,31.56
2018-08-22T16:46:10.787Z,30.73
2018-08-22T16:48:41.396Z,30.67
2018-08-22T16:51:11.763Z,30.53
2018-08-22T16:53:42.259Z,30.13
2018-08-22T16:56:12.263Z,29.98
2018-08-22T16:58:41.975Z,29.78
2018-08-22T17:01:11.587Z,28.78
2018-08-22T17:03:41.234Z,28.35
2018-08-22T17:06:14.647Z,27.52
2018-08-22T17:08:44.090Z,27.75
2018-08-22T17:11:13.694Z,27.69
2018-08-22T17:13:47.437Z,27.70
2018-08-22T17:16:17.068Z,27.72
2018-08-22T17:18:46.397Z,27.33
2018-08-22T17:21:16.181Z,27.21
2018-08-22T17:23:46.171Z,26.68
2018-08-22T17:26:18.406Z,26.19
2018-08-22T17:28:53.769Z,25.29
2018-08-22T17:31:24.771Z,24.89
2018-08-22T17:33:57.133Z,24.65
2018-08-22T17:36:27.347Z,24.21
2018-08-22T17:38:58.516Z,24.42
2018-08-22T17:41:30.252Z,24.32
2018-08-22T17:44:07.920Z,23.83
2018-08-22T17:46:41.592Z,23.30
2018-08-22T17:49:11.545Z,23.18
2018-08-22T17:51:55.060Z,23.18
2018-08-22T17:54:25.103Z,23.01
2018-08-22T17:57:06.157Z,23.02
2018-08-22T17:59:36.157Z,22.60
2018-08-22T18:02:06.196Z,22.38
2018-08-22T18:04:47.018Z,22.46
2018-08-22T18:07:18.290Z,22.33
2018-08-22T18:09:49.400Z,22.23
2018-08-22T18:12:20.548Z,22.08
2018-08-22T18:14:50.525Z,21.90
2018-08-22T18:17:22.290Z,21.74
2018-08-22T18:19:52.337Z,21.59
2018-08-22T18:22:22.470Z,21.38
2018-08-22T18:24:56.490Z,21.37
2018-08-22T18:28:13.301Z,21.35
2018-08-22T18:30:53.700Z,21.32
2018-08-22T18:33:24.278Z,21.31
2018-08-22T18:35:56.409Z,21.35
2018-08-22T18:38:27.434Z,21.32
2018-08-22T18:41:08.642Z,21.18
2018-08-22T18:43:40.255Z,21.11
2018-08-22T18:46:10.837Z,20.91
2018-08-22T18:48:47.642Z,20.92
2018-08-22T18:51:36.352Z,20.88
2018-08-22T18:54:07.346Z,20.85
2018-08-22T18:56:37.528Z,20.87
2018-08-22T18:59:18.053Z,20.84
2018-08-22T19:01:49.018Z,20.78
2018-08-22T19:04:19.029Z,20.70
2018-08-22T19:06:48.914Z,20.66
2018-08-22T19:09:18.684Z,20.61
2018-08-22T19:11:48.571Z,20.25
2018-08-22T19:14:23.806Z,20.29
2018-08-22T19:16:53.877Z,20.27
2018-08-22T19:19:24.039Z,20.22
2018-08-22T19:21:54.199Z,20.24
2018-08-22T19:24:23.958Z,20.28
2018-08-22T19:26:53.900Z,20.22
2018-08-22T19:29:24.000Z,19.97
2018-08-22T19:31:57.883Z,19.63
2018-08-22T19:34:27.782Z,19.68
2018-08-22T19:36:57.682Z,19.64
2018-08-22T19:39:39.131Z,19.67
2018-08-22T19:42:09.141Z,19.70
2018-08-22T19:44:38.923Z,19.67
2018-08-22T19:47:08.963Z,19.64
2018-08-22T19:49:38.750Z,19.65
2018-08-22T19:52:08.665Z,19.56
2018-08-22T19:54:38.553Z,19.47
2018-08-22T19:57:08.735Z,19.40
2018-08-22T19:59:38.557Z,19.33
2018-08-22T20:02:08.723Z,19.32
2018-08-22T20:04:42.628Z,19.25
2018-08-22T20:07:12.521Z,19.18
2018-08-22T20:09:43.834Z,19.09
2018-08-22T20:12:14.217Z,19.01
2018-08-22T20:14:52.905Z,18.76
2018-08-22T20:17:27.699Z,18.55
2018-08-22T20:19:57.997Z,18.45
2018-08-22T20:22:33.966Z,18.42
2018-08-22T20:25:03.945Z,18.49
2018-08-22T20:27:33.961Z,18.51
2018-08-22T20:30:08.804Z,18.51
2018-08-22T20:32:38.924Z,18.53
2018-08-22T20:35:10.853Z,18.57
2018-08-22T20:37:41.585Z,18.58
2018-08-22T20:40:11.394Z,18.59
2018-08-22T20:42:41.558Z,18.53
2018-08-22T20:45:14.958Z,18.48
2018-08-22T20:47:45.160Z,18.32
2018-08-22T20:50:15.076Z,18.21
2018-08-22T20:52:45.146Z,18.11
2018-08-22T20:55:15.104Z,18.06
2018-08-22T20:57:45.517Z,18.05
2018-08-22T21:00:16.912Z,18.03
2018-08-22T21:02:47.055Z,17.95
2018-08-22T21:05:17.546Z,18.00
2018-08-22T21:07:47.569Z,18.02
2018-08-22T21:10:17.868Z,18.10
2018-08-22T21:12:47.930Z,18.13
2018-08-22T21:15:17.691Z,18.15
2018-08-22T21:17:47.953Z,18.01
2018-08-22T21:20:23.696Z,18.00
2018-08-22T21:22:54.648Z,17.88
2018-08-22T21:25:24.435Z,17.70
2018-08-22T21:27:55.261Z,17.64
2018-08-22T21:30:25.059Z,17.51
2018-08-22T21:32:54.900Z,17.59
2018-08-22T21:35:25.467Z,17.57
2018-08-22T21:38:25.590Z,17.59
2018-08-22T21:40:55.384Z,17.51
2018-08-22T21:43:25.733Z,17.49
2018-08-22T21:45:55.508Z,17.41
2018-08-22T21:48:26.760Z,17.31
2018-08-22T21:50:56.540Z,17.22
2018-08-22T21:53:26.540Z,17.19
2018-08-22T21:55:56.307Z,17.14
2018-08-22T21:58:26.145Z,17.16
2018-08-22T22:00:55.980Z,17.15
2018-08-22T22:03:30.843Z,17.14
2018-08-22T22:06:04.320Z,17.14
2018-08-22T22:08:34.160Z,17.10
2018-08-22T22:11:06.420Z,17.04
2018-08-22T22:13:36.441Z,17.02
2018-08-22T22:16:06.742Z,17.00
2018-08-22T22:18:36.957Z,16.92
2018-08-22T22:21:16.765Z,16.83
2018-08-22T22:23:49.927Z,16.81
2018-08-22T22:26:20.341Z,16.76
2018-08-22T22:28:50.222Z,16.72
2018-08-22T22:31:20.145Z,16.72
2018-08-22T22:33:54.975Z,16.68
2018-08-22T22:36:24.684Z,16.68
2018-08-22T22:38:54.802Z,16.48
2018-08-22T22:41:29.139Z,16.44
2018-08-22T22:43:58.937Z,16.42
2018-08-22T22:46:28.933Z,16.42
2018-08-22T22:48:59.013Z,16.46
2018-08-22T22:51:29.164Z,16.43
2018-08-22T22:53:59.063Z,16.44
2018-08-22T22:56:28.924Z,16.43
2018-08-22T22:58:58.900Z,16.24
2018-08-22T23:01:28.863Z,16.24
2018-08-22T23:03:58.781Z,16.21
2018-08-22T23:06:28.523Z,16.20
2018-08-22T23:08:58.564Z,16.21
2018-08-22T23:11:28.505Z,16.30
2018-08-22T23:13:59.164Z,16.32
2018-08-22T23:16:33.766Z,16.24
2018-08-22T23:19:03.524Z,16.25
2018-08-22T23:21:33.264Z,16.21
2018-08-22T23:24:07.518Z,16.18
2018-08-22T23:26:37.259Z,16.12
2018-08-22T23:29:07.124Z,16.12
2018-08-22T23:31:36.884Z,16.21
2018-08-22T23:34:06.824Z,16.28
2018-08-22T23:36:36.618Z,16.29
2018-08-22T23:39:08.206Z,16.31
2018-08-22T23:41:38.044Z,16.36
2018-08-22T23:44:08.104Z,16.39
2018-08-22T23:46:37.866Z,16.37
2018-08-22T23:49:07.660Z,16.31
2018-08-22T23:51:37.420Z,16.31
2018-08-22T23:54:07.193Z,16.29
2018-08-22T23:56:36.985Z,16.32
2018-08-22T23:59:06.865Z,16.28
